Terminal Aerodrome Forecast
Issued by NWS

Home | Current Version | Previous Version | Text Only | Print | Product List | Glossary On
Versions: 1 2 3 4 5 6 7 8 9 10 11 12 13 14 15 16 17 18 19 20 21
542
FTUS44 KSJT 280739 AAA
TAFJCT
TAF AMD
KJCT 280739Z 2808/2906 17005KT P6SM BKN020
     FM281500 05006KT 6SM BR OVC050 PROB30 2820/2902 4SM -TSRA
      BKN050CB
     FM290200 05008KT P6SM -SHRA OVC015=

USA.gov is the U.S. government's official web portal to all federal, state and local government web resources and services.